Terminal Aerodrome Forecast
Issued by NWS

Home | Current Version | Previous Version | Text Only | Print | Product List | Glossary On
Versions: 1 2 3 4 5 6 7 8 9 10 11 12
000
FTUS44 KEPZ 260520
TAFDMN
TAF
KDMN 260520Z 2606/2706 26005KT P6SM BKN250
     FM261800 25011G19KT P6SM SCT180 OVC250
     FM270300 27011KT P6SM SCT200=

USA.gov is the U.S. government's official web portal to all federal, state and local government web resources and services.